Time,TemperatureF,DewpointF,PressureIn,WindDirection,WindDirectionDegrees,WindSpeedMPH,WindSpeedGustMPH,Humidity,HourlyPrecipIn,Conditions,Clouds,dailyrainin,SoftwareType,DateUTC
2013-05-23 00:35:00,72.0,66.7,29.35,South,180,17.0,17.0,84,0.00,,,1.61,Rainwise IP-100,2013-05-23 04:35:00,
2013-05-23 00:36:00,71.9,66.7,29.36,South,180,9.0,9.0,84,0.00,,,0.00,Rainwise IP-100,2013-05-23 04:36:00,
2013-05-23 00:53:00,71.9,66.7,29.36,South,180,9.0,9.0,84,0.00,,,0.00,Rainwise IP-100,2013-05-23 04:53:00,
2013-05-23 00:58:00,71.7,67.0,29.39,SW,225,12.0,12.0,86,0.00,,,0.00,Rainwise IP-100,2013-05-23 04:58:00,
2013-05-23 02:25:00,68.3,68.0,29.36,South,180,5.0,0.0,98,0.00,,,0.10,Rainwise IP-100,2013-05-23 06:25:00,
2013-05-23 03:27:00,68.1,67.5,29.36,SSE,157,10.0,10.0,99,0.60,,,0.10,Rainwise IP-100,2013-05-23 07:27:00,
2013-05-23 04:35:00,65.9,66.0,29.35,SSE,157,6.0,0.0,100,0.00,,,0.10,Rainwise IP-100,2013-05-23 08:35:00,
2013-05-23 07:25:00,70.3,66.3,29.39,South,180,12.0,0.0,86,0.00,,,0.10,Rainwise IP-100,2013-05-23 11:25:00,
2013-05-23 08:59:00,70.2,65.0,29.39,SSW,202,10.0,0.0,84,0.00,,,0.10,Rainwise IP-100,2013-05-23 12:59:00,
2013-05-23 09:07:00,70.1,64.5,29.39,SSW,202,16.0,16.0,83,0.00,,,0.10,Rainwise IP-100,2013-05-23 13:07:00,
2013-05-23 09:17:00,70.1,64.5,29.39,SSW,202,16.0,16.0,83,0.00,,,0.10,Rainwise IP-100,2013-05-23 13:17:00,
2013-05-23 09:40:00,69.8,64.5,29.39,South,180,12.0,0.0,83,0.00,,,0.10,Rainwise IP-100,2013-05-23 13:40:00,
2013-05-23 10:28:00,69.8,64.5,29.39,SSE,157,10.0,12.0,83,0.00,,,0.10,Rainwise IP-100,2013-05-23 14:28:00,
2013-05-23 10:35:00,69.3,64.0,29.39,SSE,157,13.0,13.0,83,0.00,,,0.10,Rainwise IP-100,2013-05-23 14:35:00,
2013-05-23 11:04:00,70.7,64.0,29.39,South,180,10.0,0.0,80,0.00,,,0.10,Rainwise IP-100,2013-05-23 15:04:00,
2013-05-23 11:17:00,70.7,64.0,29.39,South,180,14.0,16.0,80,0.00,,,0.10,Rainwise IP-100,2013-05-23 15:17:00,
2013-05-23 11:22:00,70.9,64.5,29.39,SW,225,10.0,10.0,80,0.00,,,0.10,Rainwise IP-100,2013-05-23 15:22:00,
2013-05-23 12:01:00,69.3,65.5,29.39,SSW,202,9.0,0.0,88,0.00,,,0.12,Rainwise IP-100,2013-05-23 16:01:00,
2013-05-23 12:06:00,69.3,66.3,29.39,SSW,202,11.0,11.0,90,0.12,,,0.12,Rainwise IP-100,2013-05-23 16:06:00,
2013-05-23 13:38:00,75.9,64.5,29.38,SSW,202,26.0,0.0,68,0.00,,,0.12,Rainwise IP-100,2013-05-23 17:38:00,
2013-05-23 13:43:00,76.2,65.0,29.38,SW,225,15.0,26.0,68,0.00,,,0.13,Rainwise IP-100,2013-05-23 17:43:00,
2013-05-23 13:53:00,76.2,65.0,29.38,SW,225,15.0,26.0,68,0.06,,,0.13,Rainwise IP-100,2013-05-23 17:53:00,
2013-05-23 15:57:00,78.7,63.5,29.34,South,180,12.0,0.0,60,0.00,,,0.13,Rainwise IP-100,2013-05-23 19:57:00,
2013-05-23 16:23:00,63.7,60.5,29.37,West,270,11.0,0.0,90,0.00,,,0.21,Rainwise IP-100,2013-05-23 20:23:00,
2013-05-23 16:59:00,63.9,64.0,29.35,South,180,3.0,0.0,100,0.00,,,0.51,Rainwise IP-100,2013-05-23 20:59:00,
2013-05-23 17:04:00,64.1,64.0,29.35,SSW,202,6.0,6.0,100,1.80,,,0.51,Rainwise IP-100,2013-05-23 21:04:00,
2013-05-23 18:03:00,64.1,64.0,29.35,SSW,202,6.0,6.0,100,1.80,,,0.51,Rainwise IP-100,2013-05-23 22:03:00,
2013-05-23 18:22:00,65.3,64.0,29.34,ESE,112,4.0,4.0,96,0.12,,,0.53,Rainwise IP-100,2013-05-23 22:22:00,
2013-05-23 18:57:00,64.9,64.0,29.34,East,90,12.0,0.0,96,0.00,,,0.53,Rainwise IP-100,2013-05-23 22:57:00,
2013-05-23 19:30:00,64.8,64.5,29.34,East,90,7.0,0.0,98,0.00,,,0.53,Rainwise IP-100,2013-05-23 23:30:00,
2013-05-23 19:45:00,64.8,64.5,29.34,NW,315,3.0,0.0,98,0.00,,,0.53,Rainwise IP-100,2013-05-23 23:45:00,
2013-05-23 20:04:00,64.2,63.5,29.35,West,270,0.0,0.0,99,0.00,,,0.59,Rainwise IP-100,2013-05-24 00:04:00,
2013-05-23 20:24:00,63.7,63.5,29.35,SE,135,12.0,0.0,100,0.00,,,0.63,Rainwise IP-100,2013-05-24 00:24:00,
2013-05-23 22:06:00,63.6,63.5,29.35,SSE,157,8.0,12.0,100,0.24,,,0.63,Rainwise IP-100,2013-05-24 02:06:00,
2013-05-23 23:42:00,59.1,59.0,29.35,WNW,292,0.0,0.0,100,0.00,,,0.67,Rainwise IP-100,2013-05-24 03:42:00,